createdAt,value
2023-03-26T00:02:18.972Z,99262.09
2023-03-26T00:04:46.438Z,99261.16
2023-03-26T00:07:15.979Z,99266.50
2023-03-26T00:09:44.048Z,99270.13
2023-03-26T00:12:11.326Z,99279.63
2023-03-26T00:14:40.788Z,99270.59
2023-03-26T00:17:08.863Z,99260.13
2023-03-26T00:19:36.935Z,99280.34
2023-03-26T00:22:04.443Z,99286.78
2023-03-26T00:24:33.040Z,99279.00
2023-03-26T00:27:01.036Z,99284.00
2023-03-26T00:29:28.701Z,99283.00
2023-03-26T00:31:55.990Z,99291.03
2023-03-26T00:34:24.702Z,99289.09
2023-03-26T00:36:54.554Z,99289.09
2023-03-26T00:39:23.934Z,99298.72
2023-03-26T00:41:54.510Z,99284.97
2023-03-26T00:44:22.496Z,99292.41
2023-03-26T00:46:49.733Z,99294.50
2023-03-26T00:49:17.001Z,99288.63
2023-03-26T00:51:44.280Z,99276.41
2023-03-26T00:54:11.845Z,99288.34
2023-03-26T00:56:39.578Z,99273.34
2023-03-26T00:59:09.196Z,99279.66
2023-03-26T01:01:36.664Z,99274.31
2023-03-26T01:04:28.372Z,99277.13
2023-03-26T01:06:56.388Z,99279.19
2023-03-26T01:09:27.213Z,99273.16
2023-03-26T01:11:54.547Z,99270.47
2023-03-26T01:14:24.891Z,99263.59
2023-03-26T01:16:53.042Z,99258.97
2023-03-26T01:19:24.749Z,99261.25
2023-03-26T01:21:52.067Z,99261.91
2023-03-26T01:24:20.721Z,99261.53
2023-03-26T01:26:53.983Z,99267.47
2023-03-26T01:29:23.459Z,99260.88
2023-03-26T01:31:56.069Z,99249.75
2023-03-26T01:34:30.681Z,99262.47
2023-03-26T01:37:02.294Z,99271.13
2023-03-26T01:39:33.772Z,99271.81
2023-03-26T01:42:03.515Z,99266.41
2023-03-26T01:44:35.445Z,99268.72
2023-03-26T01:47:02.818Z,99267.75
2023-03-26T01:49:30.625Z,99273.56
2023-03-26T01:51:58.686Z,99275.03
2023-03-26T01:54:28.072Z,99258.28
2023-03-26T01:57:02.276Z,99266.53
2023-03-26T01:59:38.288Z,99269.59
2023-03-26T02:02:10.228Z,99258.53
2023-03-26T02:04:42.105Z,99256.13
2023-03-26T02:07:12.704Z,99266.22
2023-03-26T02:09:45.675Z,99265.00
2023-03-26T02:12:15.414Z,99254.03
2023-03-26T02:14:43.305Z,99265.84
2023-03-26T02:17:10.946Z,99263.06
2023-03-26T02:19:41.907Z,99271.28
2023-03-26T02:22:11.138Z,99274.69
2023-03-26T02:24:38.824Z,99279.84
2023-03-26T02:27:07.631Z,99271.56
2023-03-26T02:29:37.869Z,99266.56
2023-03-26T02:32:05.868Z,99271.56
2023-03-26T02:34:33.481Z,99276.78
2023-03-26T02:37:00.903Z,99277.53
2023-03-26T02:39:28.190Z,99277.00
2023-03-26T02:41:55.629Z,99284.09
2023-03-26T02:44:22.880Z,99287.13
2023-03-26T02:46:51.441Z,99279.69
2023-03-26T02:49:18.677Z,99277.88
2023-03-26T02:51:45.929Z,99287.69
2023-03-26T02:54:13.198Z,99269.84
2023-03-26T02:56:40.519Z,99280.66
2023-03-26T02:59:09.588Z,99279.66
2023-03-26T03:01:36.910Z,99283.44
2023-03-26T03:04:05.545Z,99281.88
2023-03-26T03:06:32.856Z,99276.78
2023-03-26T03:09:02.539Z,99271.06
2023-03-26T03:11:29.796Z,99270.94
2023-03-26T03:13:57.373Z,99278.25
2023-03-26T03:16:24.907Z,99271.53
2023-03-26T03:18:57.800Z,99272.91
2023-03-26T03:21:27.654Z,99282.00
2023-03-26T03:23:55.171Z,99274.84
2023-03-26T03:26:27.625Z,99272.41
2023-03-26T03:28:55.764Z,99284.31
2023-03-26T03:31:24.692Z,99278.47
2023-03-26T03:33:52.497Z,99275.31
2023-03-26T03:36:21.976Z,99276.78
2023-03-26T03:38:51.358Z,99273.38
2023-03-26T03:41:19.119Z,99274.13
2023-03-26T03:43:46.467Z,99279.34
2023-03-26T03:46:13.776Z,99270.81
2023-03-26T03:48:43.514Z,99264.16
2023-03-26T03:51:10.784Z,99272.16
2023-03-26T03:53:40.613Z,99269.88
2023-03-26T03:56:10.490Z,99271.19
2023-03-26T03:58:37.921Z,99267.66
2023-03-26T04:01:05.475Z,99267.41
2023-03-26T04:03:38.960Z,99254.53
2023-03-26T04:06:07.801Z,99253.19
2023-03-26T04:08:35.520Z,99258.28
2023-03-26T04:11:02.873Z,99262.41
2023-03-26T04:13:31.482Z,99264.59
2023-03-26T04:15:59.216Z,99260.97
2023-03-26T04:18:27.666Z,99261.69
2023-03-26T04:20:55.709Z,99260.72
2023-03-26T04:23:23.333Z,99261.84
2023-03-26T04:25:55.371Z,99260.97
2023-03-26T04:28:28.103Z,99256.50
2023-03-26T04:31:00.610Z,99255.25
2023-03-26T04:33:28.674Z,99249.22
2023-03-26T04:35:56.811Z,99247.13
2023-03-26T04:38:24.374Z,99244.06
2023-03-26T04:40:51.964Z,99254.53
2023-03-26T04:43:19.239Z,99246.63
2023-03-26T04:45:47.764Z,99236.31
2023-03-26T04:48:16.353Z,99249.31
2023-03-26T04:50:43.939Z,99248.59
2023-03-26T04:53:13.817Z,99235.84
2023-03-26T04:55:44.838Z,99247.38
2023-03-26T04:58:13.953Z,99240.56
2023-03-26T05:00:41.839Z,99241.41
2023-03-26T05:03:11.544Z,99240.09
2023-03-26T05:05:40.546Z,99242.00
2023-03-26T05:08:07.892Z,99240.19
2023-03-26T05:10:35.311Z,99240.66
2023-03-26T05:13:02.594Z,99238.13
2023-03-26T05:15:29.982Z,99242.63
2023-03-26T05:17:57.991Z,99246.88
2023-03-26T05:20:26.318Z,99241.19
2023-03-26T05:22:55.659Z,99245.19
2023-03-26T05:25:23.188Z,99242.03
2023-03-26T05:27:50.459Z,99244.91
2023-03-26T05:30:18.502Z,99247.97
2023-03-26T05:32:47.226Z,99257.44
2023-03-26T05:35:16.856Z,99262.22
2023-03-26T05:37:45.492Z,99260.13
2023-03-26T05:40:16.777Z,99257.22
2023-03-26T05:42:44.438Z,99268.03
2023-03-26T05:45:13.303Z,99262.22
2023-03-26T05:47:40.664Z,99257.19
2023-03-26T05:50:08.954Z,99250.16
2023-03-26T05:52:36.406Z,99252.81
2023-03-26T05:55:03.942Z,99258.16
2023-03-26T05:57:32.682Z,99254.66
2023-03-26T06:00:00.358Z,99270.34
2023-03-26T06:02:29.405Z,99263.88
2023-03-26T06:04:56.824Z,99266.47
2023-03-26T06:07:24.183Z,99265.09
2023-03-26T06:09:52.008Z,99263.22
2023-03-26T06:12:19.435Z,99274.56
2023-03-26T06:14:48.100Z,99269.81
2023-03-26T06:17:15.403Z,99266.56
2023-03-26T06:19:42.670Z,99266.03
2023-03-26T06:22:09.954Z,99272.31
2023-03-26T06:24:37.338Z,99267.97
2023-03-26T06:27:04.592Z,99263.84
2023-03-26T06:29:31.942Z,99261.75
2023-03-26T06:32:12.302Z,99264.78
2023-03-26T06:34:46.148Z,99271.34
2023-03-26T06:37:13.466Z,99254.16
2023-03-26T06:39:40.945Z,99254.00
2023-03-26T06:42:08.288Z,99261.81
2023-03-26T06:44:35.846Z,99253.97
2023-03-26T06:47:04.424Z,99252.94
2023-03-26T06:49:31.762Z,99251.00
2023-03-26T06:51:59.488Z,99247.41
2023-03-26T06:54:27.475Z,99247.03
2023-03-26T06:56:54.824Z,99252.47
2023-03-26T06:59:22.191Z,99248.81
2023-03-26T07:01:49.463Z,99244.50
2023-03-26T07:04:18.166Z,99242.38
2023-03-26T07:06:45.878Z,99243.97
2023-03-26T07:09:13.182Z,99252.75
2023-03-26T07:11:40.459Z,99249.38
2023-03-26T07:14:07.780Z,99252.66
2023-03-26T07:16:35.048Z,99252.09
2023-03-26T07:19:02.309Z,99245.78
2023-03-26T07:21:31.305Z,99250.53
2023-03-26T07:23:58.768Z,99241.66
2023-03-26T07:26:27.408Z,99242.22
2023-03-26T07:29:04.403Z,99253.19
2023-03-26T07:31:35.968Z,99251.09
2023-03-26T07:34:08.667Z,99244.91
2023-03-26T07:36:45.341Z,99243.19
2023-03-26T07:39:20.443Z,99239.47
2023-03-26T07:41:50.869Z,99244.91
2023-03-26T07:44:27.541Z,99238.16
2023-03-26T07:46:55.201Z,99235.84
2023-03-26T07:49:22.748Z,99244.50
2023-03-26T07:51:51.775Z,99233.44
2023-03-26T07:54:19.437Z,99241.09
2023-03-26T07:56:49.912Z,99236.41
2023-03-26T07:59:21.804Z,99238.00
2023-03-26T08:02:01.497Z,99241.88
2023-03-26T08:04:39.904Z,99239.44
2023-03-26T08:07:11.892Z,99246.72
2023-03-26T08:09:43.290Z,99240.63
2023-03-26T08:12:18.540Z,99239.28
2023-03-26T08:14:54.592Z,99239.53
2023-03-26T08:17:25.556Z,99240.63
2023-03-26T08:20:02.131Z,99236.09
2023-03-26T08:22:34.261Z,99238.63
2023-03-26T08:25:11.484Z,99230.50
2023-03-26T08:27:40.061Z,99239.25
2023-03-26T08:30:09.993Z,99240.22
2023-03-26T08:32:37.713Z,99242.06
2023-03-26T08:35:05.324Z,99234.31
2023-03-26T08:37:33.957Z,99236.44
2023-03-26T08:40:01.207Z,99230.63
2023-03-26T08:42:46.394Z,99228.63
2023-03-26T08:45:26.912Z,99236.69
2023-03-26T08:48:12.282Z,99231.94
2023-03-26T08:50:49.454Z,99227.53
2023-03-26T08:53:29.759Z,99226.94
2023-03-26T08:55:58.067Z,99225.06
2023-03-26T08:58:58.288Z,99220.25
2023-03-26T09:01:34.134Z,99228.81
2023-03-26T09:04:19.204Z,99225.31
2023-03-26T09:07:16.436Z,99221.19
2023-03-26T09:10:02.065Z,99212.31
2023-03-26T09:13:01.874Z,99208.81
2023-03-26T09:15:38.896Z,99203.16
2023-03-26T09:18:20.631Z,99201.44
2023-03-26T09:21:00.817Z,99197.34
2023-03-26T09:23:46.534Z,99193.66
2023-03-26T09:26:27.710Z,99199.78
2023-03-26T09:29:12.948Z,99198.06
2023-03-26T09:31:57.735Z,99200.59
2023-03-26T09:34:28.938Z,99199.03
2023-03-26T09:36:57.487Z,99199.09
2023-03-26T09:39:36.398Z,99191.25
2023-03-26T09:42:09.652Z,99180.81
2023-03-26T09:44:45.722Z,99180.94
2023-03-26T09:47:25.281Z,99175.81
2023-03-26T09:49:54.791Z,99173.25
2023-03-26T09:52:27.017Z,99161.78
2023-03-26T09:55:12.663Z,99157.81
2023-03-26T09:57:53.563Z,99161.19
2023-03-26T10:00:25.365Z,99164.47
2023-03-26T10:03:09.240Z,99156.06
2023-03-26T10:05:41.556Z,99154.22
2023-03-26T10:08:20.229Z,99148.44
2023-03-26T10:10:53.453Z,99142.44
2023-03-26T10:13:26.777Z,99148.47
2023-03-26T10:16:03.366Z,99144.03
2023-03-26T10:18:38.754Z,99134.72
2023-03-26T10:21:08.808Z,99132.53
2023-03-26T10:23:43.259Z,99133.91
2023-03-26T10:26:21.618Z,99126.78
2023-03-26T10:29:04.597Z,99119.81
2023-03-26T10:31:37.889Z,99111.41
2023-03-26T10:34:10.978Z,99110.69
2023-03-26T10:37:01.693Z,99109.75
2023-03-26T10:39:45.296Z,99101.28
2023-03-26T10:42:20.603Z,99101.13
2023-03-26T10:45:00.385Z,99085.81
2023-03-26T10:47:35.854Z,99094.22
2023-03-26T10:50:23.127Z,99081.75
2023-03-26T10:52:55.154Z,99072.50
2023-03-26T10:55:25.444Z,99079.63
2023-03-26T10:57:54.175Z,99061.81
2023-03-26T11:00:25.227Z,99059.63
2023-03-26T11:03:03.897Z,99060.84
2023-03-26T11:05:41.847Z,99046.56
2023-03-26T11:08:13.560Z,99057.47
2023-03-26T11:10:49.209Z,99047.69
2023-03-26T11:13:21.460Z,99039.34
2023-03-26T11:15:53.697Z,99042.25
2023-03-26T11:18:24.511Z,99029.19
2023-03-26T11:20:57.147Z,99036.56
2023-03-26T11:24:05.737Z,99024.47
2023-03-26T11:26:39.482Z,99024.13
2023-03-26T11:29:31.884Z,99024.44
2023-03-26T11:32:03.453Z,99011.97
2023-03-26T11:34:34.074Z,99016.66
2023-03-26T11:37:02.571Z,99012.75
2023-03-26T11:39:30.909Z,99014.03
2023-03-26T11:42:04.370Z,99007.25
2023-03-26T11:44:34.824Z,98999.63
2023-03-26T11:47:05.426Z,98994.25
2023-03-26T11:49:33.505Z,99005.50
2023-03-26T11:52:01.860Z,98995.28
2023-03-26T11:54:29.154Z,98998.81
2023-03-26T11:57:05.410Z,99002.59
2023-03-26T11:59:45.302Z,98992.00
2023-03-26T12:02:28.910Z,98990.34
2023-03-26T12:05:09.806Z,98979.69
2023-03-26T12:07:37.384Z,98997.38
2023-03-26T12:10:18.236Z,98991.31
2023-03-26T12:12:46.939Z,98992.94
2023-03-26T12:15:14.803Z,98995.84
2023-03-26T12:17:43.482Z,98998.13
2023-03-26T12:20:31.018Z,98996.94
2023-03-26T12:22:59.834Z,98991.59
2023-03-26T12:25:28.244Z,98985.59
2023-03-26T12:28:02.318Z,98986.94
2023-03-26T12:30:30.788Z,98985.84
2023-03-26T12:33:03.535Z,98984.72
2023-03-26T12:35:32.175Z,98979.88
2023-03-26T12:38:14.899Z,98979.19
2023-03-26T12:40:43.070Z,98981.34
2023-03-26T12:44:47.213Z,98979.88
2023-03-26T12:47:56.484Z,98984.78
2023-03-26T12:49:12.370Z,98975.22
2023-03-26T12:51:48.308Z,98981.19
2023-03-26T12:54:24.478Z,98981.25
2023-03-26T12:57:11.881Z,98986.63
2023-03-26T12:59:48.789Z,98984.53
2023-03-26T13:02:25.483Z,98979.66
2023-03-26T13:05:09.292Z,98980.94
2023-03-26T13:07:45.518Z,98962.78
2023-03-26T13:10:31.456Z,98967.81
2023-03-26T13:13:06.429Z,98958.84
2023-03-26T13:15:36.536Z,98949.13
2023-03-26T13:18:11.804Z,98957.03
2023-03-26T13:20:49.512Z,98950.28
2023-03-26T13:23:24.156Z,98948.59
2023-03-26T13:25:55.911Z,98939.03
2023-03-26T13:28:30.829Z,98936.53
2023-03-26T13:31:03.938Z,98951.34
2023-03-26T13:33:35.833Z,98941.94
2023-03-26T13:36:22.661Z,98938.63
2023-03-26T13:38:59.178Z,98933.84
2023-03-26T13:41:34.401Z,98930.34
2023-03-26T13:44:06.194Z,98922.25
2023-03-26T13:46:37.343Z,98931.00
2023-03-26T13:49:09.101Z,98919.50
2023-03-26T13:51:41.794Z,98923.16
2023-03-26T13:54:16.777Z,98925.34
2023-03-26T13:56:47.745Z,98923.41
2023-03-26T13:59:17.729Z,98936.09
2023-03-26T14:01:51.151Z,98944.47
2023-03-26T14:04:22.335Z,98929.47
2023-03-26T14:06:57.078Z,98939.16
2023-03-26T14:09:27.714Z,98953.34
2023-03-26T14:12:05.282Z,98950.72
2023-03-26T14:14:35.589Z,98943.78
2023-03-26T14:17:06.399Z,98955.28
2023-03-26T14:19:54.567Z,98950.34
2023-03-26T14:22:28.506Z,98943.63
2023-03-26T14:25:03.159Z,98942.19
2023-03-26T14:27:44.080Z,98939.69
2023-03-26T14:30:40.480Z,98942.38
2023-03-26T14:33:27.433Z,98957.22
2023-03-26T14:35:59.154Z,98957.53
2023-03-26T14:38:35.494Z,98964.91
2023-03-26T14:41:06.968Z,98960.81
2023-03-26T14:43:56.406Z,98965.13
2023-03-26T14:46:44.337Z,98964.22
2023-03-26T14:49:26.409Z,98963.63
2023-03-26T14:51:59.916Z,98961.56
2023-03-26T14:54:30.297Z,98955.31
2023-03-26T14:57:21.444Z,98945.84
2023-03-26T14:59:59.254Z,98954.22
2023-03-26T15:02:44.202Z,98957.28
2023-03-26T15:05:40.797Z,98951.91
2023-03-26T15:08:41.054Z,98934.94
2023-03-26T15:11:19.278Z,98944.75
2023-03-26T15:13:54.666Z,98941.78
2023-03-26T15:16:30.428Z,98937.56
2023-03-26T15:19:23.152Z,98939.53
2023-03-26T15:22:05.959Z,98932.88
2023-03-26T15:24:51.028Z,98939.22
2023-03-26T15:27:28.621Z,98936.69
2023-03-26T15:30:13.570Z,98932.47
2023-03-26T15:32:49.544Z,98930.91
2023-03-26T15:35:38.412Z,98933.59
2023-03-26T15:38:23.179Z,98926.25
2023-03-26T15:41:20.421Z,98925.00
2023-03-26T15:44:23.364Z,98932.03
2023-03-26T15:46:56.692Z,98925.94
2023-03-26T15:49:30.873Z,98930.59
2023-03-26T15:52:00.676Z,98934.97
2023-03-26T15:54:30.301Z,98929.75
2023-03-26T15:57:03.768Z,98931.50
2023-03-26T15:59:37.802Z,98944.63
2023-03-26T16:02:16.032Z,98933.81
2023-03-26T16:04:50.370Z,98932.63
2023-03-26T16:07:44.229Z,98935.19
2023-03-26T16:10:17.099Z,98940.88
2023-03-26T16:12:48.226Z,98934.78
2023-03-26T16:15:30.707Z,98941.03
2023-03-26T16:18:22.317Z,98940.88
2023-03-26T16:20:54.005Z,98945.47
2023-03-26T16:23:27.229Z,98942.94
2023-03-26T16:25:55.158Z,98944.31
2023-03-26T16:28:28.437Z,98949.53
2023-03-26T16:31:39.276Z,98950.00
2023-03-26T16:34:22.286Z,98947.38
2023-03-26T16:36:51.410Z,98949.41
2023-03-26T16:39:25.423Z,98944.28
2023-03-26T16:42:06.418Z,98942.31
2023-03-26T16:44:38.948Z,98947.03
2023-03-26T16:47:11.058Z,98941.69
2023-03-26T16:50:07.409Z,98948.75
2023-03-26T16:52:42.954Z,98955.94
2023-03-26T16:55:17.125Z,98950.50
2023-03-26T16:57:46.668Z,98952.53
2023-03-26T17:00:48.003Z,98951.59
2023-03-26T17:03:35.573Z,98942.81
2023-03-26T17:06:15.424Z,98950.19
2023-03-26T17:08:48.253Z,98951.22
2023-03-26T17:11:21.818Z,98959.19
2023-03-26T17:13:52.310Z,98955.00
2023-03-26T17:16:23.054Z,98953.34
2023-03-26T17:18:56.432Z,98956.94
2023-03-26T17:21:28.877Z,98963.94
2023-03-26T17:24:18.997Z,98960.97
2023-03-26T17:26:53.805Z,98952.19
2023-03-26T17:29:27.188Z,98957.63
2023-03-26T17:32:00.257Z,98958.06
2023-03-26T17:34:48.618Z,98960.81
2023-03-26T17:37:30.805Z,98961.66
2023-03-26T17:40:16.714Z,98971.38
2023-03-26T17:42:58.949Z,98961.06
2023-03-26T17:47:59.163Z,98961.66
2023-03-26T17:50:29.833Z,98969.41
2023-03-26T17:52:58.404Z,98968.25
2023-03-26T17:55:31.756Z,98975.06
2023-03-26T17:58:00.344Z,98977.56
2023-03-26T18:00:31.098Z,98972.69
2023-03-26T18:03:01.278Z,98977.03
2023-03-26T18:05:30.450Z,98974.66
2023-03-26T18:08:26.418Z,98983.53
2023-03-26T18:11:09.128Z,98982.50
2023-03-26T18:13:49.906Z,98982.66
2023-03-26T18:16:20.824Z,98980.25
2023-03-26T18:18:50.668Z,98989.66
2023-03-26T18:21:21.425Z,98985.06
2023-03-26T18:23:50.592Z,98991.44
2023-03-26T18:26:20.066Z,98983.94
2023-03-26T18:28:50.861Z,98990.72
2023-03-26T18:31:21.561Z,98979.38
2023-03-26T18:33:49.645Z,98979.91
2023-03-26T18:36:18.499Z,98988.44
2023-03-26T18:38:46.565Z,98981.75
2023-03-26T18:41:18.078Z,98987.09
2023-03-26T18:43:45.585Z,98982.56
2023-03-26T18:46:13.664Z,98975.13
2023-03-26T18:48:42.737Z,98977.09
2023-03-26T18:51:11.142Z,98984.34
2023-03-26T18:53:39.434Z,98980.28
2023-03-26T18:56:19.088Z,98983.34
2023-03-26T18:58:50.810Z,98970.69
2023-03-26T19:01:25.433Z,98968.25
2023-03-26T19:03:55.244Z,98969.03
2023-03-26T19:06:23.871Z,98963.06
2023-03-26T19:08:52.289Z,98963.97
2023-03-26T19:11:20.137Z,98967.19
2023-03-26T19:13:51.424Z,98963.63
2023-03-26T19:16:22.116Z,98960.31
2023-03-26T19:18:49.934Z,98952.22
2023-03-26T19:21:20.057Z,98953.00
2023-03-26T19:23:48.317Z,98962.94
2023-03-26T19:26:16.596Z,98949.66
2023-03-26T19:28:48.959Z,98947.28
2023-03-26T19:31:21.938Z,98944.91
2023-03-26T19:33:55.951Z,98944.34
2023-03-26T19:36:28.162Z,98946.28
2023-03-26T19:39:04.377Z,98935.78
2023-03-26T19:41:33.004Z,98935.09
2023-03-26T19:44:01.258Z,98935.78
2023-03-26T19:46:29.755Z,98922.94
2023-03-26T19:48:57.935Z,98921.94
2023-03-26T19:51:32.074Z,98922.88
2023-03-26T19:54:00.754Z,98920.44
2023-03-26T19:56:28.781Z,98916.53
2023-03-26T19:58:57.022Z,98917.13
2023-03-26T20:01:25.491Z,98914.00
2023-03-26T20:03:55.005Z,98913.34
2023-03-26T20:06:30.696Z,98911.91
2023-03-26T20:09:04.097Z,98902.75
2023-03-26T20:11:33.510Z,98898.41
2023-03-26T20:14:01.640Z,98896.63
2023-03-26T20:16:29.679Z,98887.56
2023-03-26T20:18:57.296Z,98888.25
2023-03-26T20:21:25.208Z,98887.97
2023-03-26T20:23:53.490Z,98891.50
2023-03-26T20:26:22.978Z,98884.72
2023-03-26T20:28:53.452Z,98880.63
2023-03-26T20:31:22.786Z,98883.09
2023-03-26T20:33:50.659Z,98879.63
2023-03-26T20:36:32.999Z,98881.97
2023-03-26T20:39:02.434Z,98884.03
2023-03-26T20:41:31.609Z,98884.91
2023-03-26T20:43:58.891Z,98886.09
2023-03-26T21:01:00.383Z,98877.28
2023-03-26T21:03:27.811Z,98871.47
2023-03-26T21:05:55.150Z,98871.34
2023-03-26T21:08:29.925Z,98864.16
2023-03-26T21:10:58.673Z,98864.50
2023-03-26T21:13:30.712Z,98867.56
2023-03-26T21:16:00.882Z,98854.34
2023-03-26T21:18:58.719Z,98866.78
2023-03-26T21:21:57.921Z,98863.94
2023-03-26T22:17:14.093Z,98919.22
2023-03-26T22:19:48.194Z,98915.47
2023-03-26T22:22:42.530Z,98915.66
2023-03-26T22:29:34.257Z,98923.22
